sensor_id;sensor_type;location;lat;lon;timestamp;pressure;altitude;pressure_sealevel;temperature;humidity
22181;BME280;11256;50.830;12.834;2024-01-10T00:01:14;98977.97;;;-8.12;73.40
22181;BME280;11256;50.830;12.834;2024-01-10T00:06:14;98970.78;;;-8.20;73.49
22181;BME280;11256;50.830;12.834;2024-01-10T00:11:14;98981.03;;;-8.17;73.42
22181;BME280;11256;50.830;12.834;2024-01-10T00:16:15;98946.22;;;-8.39;73.17
22181;BME280;11256;50.830;12.834;2024-01-10T00:21:15;98944.16;;;-8.36;73.03
22181;BME280;11256;50.830;12.834;2024-01-10T00:26:15;98936.94;;;-8.43;73.64
22181;BME280;11256;50.830;12.834;2024-01-10T00:31:17;98935.53;;;-8.47;73.51
22181;BME280;11256;50.830;12.834;2024-01-10T00:36:17;98951.59;;;-8.41;73.66
22181;BME280;11256;50.830;12.834;2024-01-10T00:41:17;98947.97;;;-8.49;73.71
22181;BME280;11256;50.830;12.834;2024-01-10T00:46:18;98934.41;;;-8.54;73.58
22181;BME280;11256;50.830;12.834;2024-01-10T00:51:18;98945.75;;;-8.54;73.54
22181;BME280;11256;50.830;12.834;2024-01-10T00:56:19;98950.28;;;-8.56;73.77
22181;BME280;11256;50.830;12.834;2024-01-10T01:01:19;98952.09;;;-8.56;73.70
22181;BME280;11256;50.830;12.834;2024-01-10T01:06:20;98926.13;;;-8.80;73.75
22181;BME280;11256;50.830;12.834;2024-01-10T01:11:20;98943.72;;;-8.71;73.69
22181;BME280;11256;50.830;12.834;2024-01-10T01:16:20;98947.44;;;-8.73;73.49
22181;BME280;11256;50.830;12.834;2024-01-10T01:21:20;98935.94;;;-8.82;73.74
22181;BME280;11256;50.830;12.834;2024-01-10T01:26:21;98947.81;;;-8.78;73.52
22181;BME280;11256;50.830;12.834;2024-01-10T01:31:21;98930.41;;;-8.79;73.38
22181;BME280;11256;50.830;12.834;2024-01-10T01:36:22;98915.69;;;-8.91;73.76
22181;BME280;11256;50.830;12.834;2024-01-10T01:41:22;98904.06;;;-8.98;73.72
22181;BME280;11256;50.830;12.834;2024-01-10T01:46:23;98907.38;;;-8.96;73.87
22181;BME280;11256;50.830;12.834;2024-01-10T01:51:23;98924.72;;;-8.84;73.42
22181;BME280;11256;50.830;12.834;2024-01-10T01:56:25;98916.84;;;-8.84;73.53
22181;BME280;11256;50.830;12.834;2024-01-10T02:01:25;98905.19;;;-8.91;73.15
22181;BME280;11256;50.830;12.834;2024-01-10T02:06:25;98902.38;;;-8.99;72.98
22181;BME280;11256;50.830;12.834;2024-01-10T02:11:26;98911.53;;;-8.93;73.42
22181;BME280;11256;50.830;12.834;2024-01-10T02:16:26;98912.38;;;-8.93;73.74
22181;BME280;11256;50.830;12.834;2024-01-10T02:21:27;98905.00;;;-8.99;73.32
22181;BME280;11256;50.830;12.834;2024-01-10T02:26:27;98901.69;;;-9.01;73.59
22181;BME280;11256;50.830;12.834;2024-01-10T02:31:28;98899.06;;;-9.01;73.47
22181;BME280;11256;50.830;12.834;2024-01-10T02:36:28;98902.78;;;-9.03;73.74
22181;BME280;11256;50.830;12.834;2024-01-10T02:41:28;98905.97;;;-9.00;73.33
22181;BME280;11256;50.830;12.834;2024-01-10T02:46:29;98890.28;;;-9.11;73.95
22181;BME280;11256;50.830;12.834;2024-01-10T02:51:31;98914.56;;;-8.98;73.45
22181;BME280;11256;50.830;12.834;2024-01-10T02:56:31;98884.03;;;-9.19;73.28
22181;BME280;11256;50.830;12.834;2024-01-10T03:01:31;98890.81;;;-9.17;73.46
22181;BME280;11256;50.830;12.834;2024-01-10T03:06:32;98878.53;;;-9.16;73.37
22181;BME280;11256;50.830;12.834;2024-01-10T03:11:32;98903.84;;;-9.06;73.95
22181;BME280;11256;50.830;12.834;2024-01-10T03:16:35;98898.16;;;-9.11;72.96
22181;BME280;11256;50.830;12.834;2024-01-10T03:21:35;98902.59;;;-9.11;73.88
22181;BME280;11256;50.830;12.834;2024-01-10T03:26:36;98877.50;;;-9.25;73.40
22181;BME280;11256;50.830;12.834;2024-01-10T03:31:36;98892.47;;;-9.16;73.21
22181;BME280;11256;50.830;12.834;2024-01-10T03:36:37;98903.91;;;-9.17;72.66
22181;BME280;11256;50.830;12.834;2024-01-10T03:41:37;98899.81;;;-9.10;73.63
22181;BME280;11256;50.830;12.834;2024-01-10T03:46:38;98899.56;;;-9.07;73.91
22181;BME280;11256;50.830;12.834;2024-01-10T03:51:38;98896.50;;;-9.12;73.71
22181;BME280;11256;50.830;12.834;2024-01-10T03:56:40;98890.22;;;-9.20;73.30
22181;BME280;11256;50.830;12.834;2024-01-10T04:01:40;98884.88;;;-9.19;73.67
22181;BME280;11256;50.830;12.834;2024-01-10T04:06:41;98887.22;;;-9.16;73.97
22181;BME280;11256;50.830;12.834;2024-01-10T04:11:41;98890.72;;;-9.06;74.32
22181;BME280;11256;50.830;12.834;2024-01-10T04:16:41;98894.91;;;-9.03;74.38
22181;BME280;11256;50.830;12.834;2024-01-10T04:21:42;98901.81;;;-9.02;74.26
22181;BME280;11256;50.830;12.834;2024-01-10T04:26:42;98865.28;;;-9.15;74.39
22181;BME280;11256;50.830;12.834;2024-01-10T04:31:42;98889.13;;;-8.97;74.54
22181;BME280;11256;50.830;12.834;2024-01-10T04:36:43;98898.53;;;-8.95;74.20
22181;BME280;11256;50.830;12.834;2024-01-10T04:41:43;98883.06;;;-8.98;74.23
22181;BME280;11256;50.830;12.834;2024-01-10T04:46:44;98858.44;;;-9.06;73.99
22181;BME280;11256;50.830;12.834;2024-01-10T04:51:44;98865.06;;;-9.02;74.13
22181;BME280;11256;50.830;12.834;2024-01-10T04:56:45;98871.31;;;-8.94;73.83
22181;BME280;11256;50.830;12.834;2024-01-10T05:01:45;98860.13;;;-8.96;74.04
22181;BME280;11256;50.830;12.834;2024-01-10T05:06:46;98873.94;;;-8.94;74.26
22181;BME280;11256;50.830;12.834;2024-01-10T05:11:46;98874.91;;;-8.95;73.84
22181;BME280;11256;50.830;12.834;2024-01-10T05:16:51;98863.09;;;-9.10;73.33
22181;BME280;11256;50.830;12.834;2024-01-10T05:21:53;98876.81;;;-9.06;73.68
22181;BME280;11256;50.830;12.834;2024-01-10T05:26:54;98875.44;;;-9.01;73.97
22181;BME280;11256;50.830;12.834;2024-01-10T05:31:55;98871.84;;;-9.00;73.72
22181;BME280;11256;50.830;12.834;2024-01-10T05:36:55;98881.66;;;-9.02;73.70
22181;BME280;11256;50.830;12.834;2024-01-10T05:41:55;98873.91;;;-9.03;73.94
22181;BME280;11256;50.830;12.834;2024-01-10T05:46:56;98857.66;;;-9.18;73.70
22181;BME280;11256;50.830;12.834;2024-01-10T05:51:59;98869.56;;;-9.14;74.33
22181;BME280;11256;50.830;12.834;2024-01-10T05:56:59;98871.41;;;-9.05;74.72
22181;BME280;11256;50.830;12.834;2024-01-10T06:02:03;98862.00;;;-9.07;74.14
22181;BME280;11256;50.830;12.834;2024-01-10T06:07:03;98872.56;;;-8.98;74.35
22181;BME280;11256;50.830;12.834;2024-01-10T06:12:04;98867.84;;;-9.04;74.89
22181;BME280;11256;50.830;12.834;2024-01-10T06:17:05;98870.75;;;-8.97;74.39
22181;BME280;11256;50.830;12.834;2024-01-10T06:22:06;98862.31;;;-9.01;74.51
22181;BME280;11256;50.830;12.834;2024-01-10T06:27:06;98860.38;;;-8.99;74.37
22181;BME280;11256;50.830;12.834;2024-01-10T06:32:06;98867.56;;;-9.01;74.48
22181;BME280;11256;50.830;12.834;2024-01-10T06:37:08;98867.31;;;-8.98;74.72
22181;BME280;11256;50.830;12.834;2024-01-10T06:42:09;98863.16;;;-9.00;75.10
22181;BME280;11256;50.830;12.834;2024-01-10T06:47:11;98877.81;;;-8.98;74.44
22181;BME280;11256;50.830;12.834;2024-01-10T06:52:12;98881.13;;;-8.96;74.85
22181;BME280;11256;50.830;12.834;2024-01-10T06:57:12;98873.25;;;-8.96;74.76
22181;BME280;11256;50.830;12.834;2024-01-10T07:02:13;98852.34;;;-9.07;74.83
22181;BME280;11256;50.830;12.834;2024-01-10T07:07:14;98872.69;;;-8.99;74.96
22181;BME280;11256;50.830;12.834;2024-01-10T07:12:14;98882.53;;;-8.92;74.74
22181;BME280;11256;50.830;12.834;2024-01-10T07:17:14;98863.53;;;-9.05;74.95
22181;BME280;11256;50.830;12.834;2024-01-10T07:22:16;98871.72;;;-8.98;74.77
22181;BME280;11256;50.830;12.834;2024-01-10T07:27:18;98874.47;;;-9.00;74.65
22181;BME280;11256;50.830;12.834;2024-01-10T07:32:18;98891.09;;;-8.90;75.14
22181;BME280;11256;50.830;12.834;2024-01-10T07:37:20;98873.34;;;-9.07;75.30
22181;BME280;11256;50.830;12.834;2024-01-10T07:42:21;98889.16;;;-8.88;75.17
22181;BME280;11256;50.830;12.834;2024-01-10T07:47:21;98882.25;;;-8.89;75.07
22181;BME280;11256;50.830;12.834;2024-01-10T07:52:21;98883.56;;;-8.83;75.25
22181;BME280;11256;50.830;12.834;2024-01-10T07:57:22;98896.72;;;-8.74;75.40
22181;BME280;11256;50.830;12.834;2024-01-10T08:02:22;98884.03;;;-8.69;75.80
22181;BME280;11256;50.830;12.834;2024-01-10T08:07:22;98877.81;;;-8.68;75.47
22181;BME280;11256;50.830;12.834;2024-01-10T08:12:23;98894.59;;;-8.50;75.93
22181;BME280;11256;50.830;12.834;2024-01-10T08:17:24;98892.75;;;-8.29;75.74
22181;BME280;11256;50.830;12.834;2024-01-10T08:22:24;98909.69;;;-7.93;76.09
22181;BME280;11256;50.830;12.834;2024-01-10T08:27:25;98906.44;;;-7.57;76.03
22181;BME280;11256;50.830;12.834;2024-01-10T08:32:25;98904.75;;;-7.11;76.11
22181;BME280;11256;50.830;12.834;2024-01-10T08:37:26;98921.59;;;-6.29;79.53
22181;BME280;11256;50.830;12.834;2024-01-10T08:42:26;98901.25;;;-4.87;80.51
22181;BME280;11256;50.830;12.834;2024-01-10T08:47:26;98905.47;;;-2.95;77.92
22181;BME280;11256;50.830;12.834;2024-01-10T08:52:27;98896.94;;;-1.19;74.68
22181;BME280;11256;50.830;12.834;2024-01-10T08:57:27;98886.28;;;0.42;72.20
22181;BME280;11256;50.830;12.834;2024-01-10T09:02:28;98876.72;;;1.80;68.52
22181;BME280;11256;50.830;12.834;2024-01-10T09:07:28;98846.91;;;2.77;67.02
22181;BME280;11256;50.830;12.834;2024-01-10T09:12:28;98874.56;;;3.88;66.72
22181;BME280;11256;50.830;12.834;2024-01-10T09:17:29;98887.66;;;4.35;61.99
22181;BME280;11256;50.830;12.834;2024-01-10T09:22:29;98880.69;;;4.08;59.98
22181;BME280;11256;50.830;12.834;2024-01-10T09:27:33;98844.09;;;3.69;58.93
22181;BME280;11256;50.830;12.834;2024-01-10T09:32:34;98867.19;;;3.51;58.52
22181;BME280;11256;50.830;12.834;2024-01-10T09:37:35;98865.13;;;3.46;59.01
22181;BME280;11256;50.830;12.834;2024-01-10T09:42:35;98855.66;;;3.24;58.58
22181;BME280;11256;50.830;12.834;2024-01-10T09:47:39;98881.19;;;3.20;58.33
22181;BME280;11256;50.830;12.834;2024-01-10T09:52:53;98879.91;;;2.97;58.58
22181;BME280;11256;50.830;12.834;2024-01-10T09:57:54;98870.47;;;2.47;57.86
22181;BME280;11256;50.830;12.834;2024-01-10T10:02:55;98879.47;;;1.93;57.30
22181;BME280;11256;50.830;12.834;2024-01-10T10:07:56;98870.69;;;1.44;57.69
22181;BME280;11256;50.830;12.834;2024-01-10T10:12:58;98874.25;;;1.02;58.52
22181;BME280;11256;50.830;12.834;2024-01-10T10:17:59;98866.28;;;0.67;58.75
22181;BME280;11256;50.830;12.834;2024-01-10T10:23:03;98855.91;;;0.36;59.10
22181;BME280;11256;50.830;12.834;2024-01-10T10:28:04;98864.28;;;0.19;58.82
22181;BME280;11256;50.830;12.834;2024-01-10T10:33:05;98864.75;;;-0.07;57.95
22181;BME280;11256;50.830;12.834;2024-01-10T10:38:08;98829.78;;;-0.47;56.68
22181;BME280;11256;50.830;12.834;2024-01-10T10:43:13;98855.84;;;-0.43;56.42
22181;BME280;11256;50.830;12.834;2024-01-10T10:48:20;98857.13;;;-0.53;59.23
22181;BME280;11256;50.830;12.834;2024-01-10T10:53:22;98855.53;;;-0.62;57.48
22181;BME280;11256;50.830;12.834;2024-01-10T10:58:24;98857.28;;;-0.69;58.36
22181;BME280;11256;50.830;12.834;2024-01-10T11:03:25;98850.31;;;-0.70;58.63
22181;BME280;11256;50.830;12.834;2024-01-10T11:08:27;98852.59;;;-0.67;58.33
22181;BME280;11256;50.830;12.834;2024-01-10T11:13:45;98833.88;;;-0.73;58.12
22181;BME280;11256;50.830;12.834;2024-01-10T11:19:20;98838.94;;;-0.64;56.26
22181;BME280;11256;50.830;12.834;2024-01-10T11:24:24;98834.97;;;-0.68;56.20
22181;BME280;11256;50.830;12.834;2024-01-10T11:29:28;98822.97;;;-0.64;60.20
22181;BME280;11256;50.830;12.834;2024-01-10T11:34:29;98820.50;;;-0.65;57.30
22181;BME280;11256;50.830;12.834;2024-01-10T11:39:29;98836.13;;;-0.48;55.64
22181;BME280;11256;50.830;12.834;2024-01-10T11:44:29;98829.78;;;-0.47;58.76
22181;BME280;11256;50.830;12.834;2024-01-10T11:49:30;98829.97;;;-0.05;68.43
22181;BME280;11256;50.830;12.834;2024-01-10T11:54:44;98835.09;;;-0.04;59.95
22181;BME280;11256;50.830;12.834;2024-01-10T11:59:45;98819.94;;;-0.03;57.93
22181;BME280;11256;50.830;12.834;2024-01-10T12:04:46;98809.16;;;0.05;56.25
22181;BME280;11256;50.830;12.834;2024-01-10T12:09:47;98831.19;;;0.28;55.23
22181;BME280;11256;50.830;12.834;2024-01-10T12:14:50;98815.69;;;0.38;56.21
22181;BME280;11256;50.830;12.834;2024-01-10T12:19:53;98816.88;;;0.50;56.48
22181;BME280;11256;50.830;12.834;2024-01-10T12:24:54;98813.06;;;0.59;54.20
22181;BME280;11256;50.830;12.834;2024-01-10T12:29:54;98803.78;;;0.76;54.11
22181;BME280;11256;50.830;12.834;2024-01-10T12:34:59;98806.16;;;1.68;68.08
22181;BME280;11256;50.830;12.834;2024-01-10T12:40:00;98800.59;;;2.83;74.90
22181;BME280;11256;50.830;12.834;2024-01-10T12:45:00;98798.75;;;2.96;75.86
22181;BME280;11256;50.830;12.834;2024-01-10T12:50:01;98791.28;;;3.76;77.52
22181;BME280;11256;50.830;12.834;2024-01-10T12:55:02;98801.63;;;3.60;77.54
22181;BME280;11256;50.830;12.834;2024-01-10T13:00:02;98787.09;;;4.00;77.41
22181;BME280;11256;50.830;12.834;2024-01-10T13:05:08;98786.59;;;4.22;76.90
22181;BME280;11256;50.830;12.834;2024-01-10T13:10:11;98784.50;;;4.31;77.42
22181;BME280;11256;50.830;12.834;2024-01-10T13:15:12;98779.16;;;4.62;76.28
22181;BME280;11256;50.830;12.834;2024-01-10T13:20:12;98779.34;;;4.67;76.70
22181;BME280;11256;50.830;12.834;2024-01-10T13:25:13;98776.09;;;4.58;73.98
22181;BME280;11256;50.830;12.834;2024-01-10T13:30:15;98783.84;;;4.73;73.28
22181;BME280;11256;50.830;12.834;2024-01-10T13:35:16;98776.09;;;4.52;73.51
22181;BME280;11256;50.830;12.834;2024-01-10T13:40:16;98785.31;;;4.69;74.14
22181;BME280;11256;50.830;12.834;2024-01-10T13:45:16;98784.75;;;5.16;74.89
22181;BME280;11256;50.830;12.834;2024-01-10T13:50:17;98782.16;;;5.34;74.57
22181;BME280;11256;50.830;12.834;2024-01-10T13:55:17;98798.38;;;5.88;73.45
22181;BME280;11256;50.830;12.834;2024-01-10T14:00:20;98801.00;;;5.94;73.80
22181;BME280;11256;50.830;12.834;2024-01-10T14:05:20;98796.75;;;5.87;73.00
22181;BME280;11256;50.830;12.834;2024-01-10T14:10:21;98803.75;;;5.88;73.11
22181;BME280;11256;50.830;12.834;2024-01-10T14:15:21;98792.63;;;5.60;71.52
22181;BME280;11256;50.830;12.834;2024-01-10T14:20:21;98781.97;;;5.53;72.25
22181;BME280;11256;50.830;12.834;2024-01-10T14:25:22;98795.56;;;5.83;72.67
22181;BME280;11256;50.830;12.834;2024-01-10T14:30:22;98804.38;;;5.90;73.03
22181;BME280;11256;50.830;12.834;2024-01-10T14:35:25;98785.22;;;5.98;72.04
22181;BME280;11256;50.830;12.834;2024-01-10T14:40:25;98784.19;;;5.99;71.37
22181;BME280;11256;50.830;12.834;2024-01-10T14:45:25;98776.00;;;5.94;71.15
22181;BME280;11256;50.830;12.834;2024-01-10T14:50:26;98793.63;;;5.90;71.26
22181;BME280;11256;50.830;12.834;2024-01-10T14:55:35;98793.47;;;5.78;71.79
22181;BME280;11256;50.830;12.834;2024-01-10T15:00:40;98799.91;;;5.59;71.61
22181;BME280;11256;50.830;12.834;2024-01-10T15:05:46;98807.69;;;5.43;71.90
22181;BME280;11256;50.830;12.834;2024-01-10T15:10:57;98791.88;;;5.04;72.27
22181;BME280;11256;50.830;12.834;2024-01-10T15:15:57;98787.50;;;4.85;71.98
22181;BME280;11256;50.830;12.834;2024-01-10T15:21:00;98787.56;;;4.72;72.35
22181;BME280;11256;50.830;12.834;2024-01-10T15:26:15;98818.72;;;4.73;72.50
22181;BME280;11256;50.830;12.834;2024-01-10T15:31:38;98797.25;;;4.42;72.01
22181;BME280;11256;50.830;12.834;2024-01-10T15:36:47;98775.44;;;4.19;72.02
22181;BME280;11256;50.830;12.834;2024-01-10T15:42:00;98787.66;;;4.15;71.95
22181;BME280;11256;50.830;12.834;2024-01-10T15:47:24;98772.66;;;4.01;72.42
22181;BME280;11256;50.830;12.834;2024-01-10T15:53:05;98777.66;;;3.84;72.08
22181;BME280;11256;50.830;12.834;2024-01-10T15:58:09;98777.72;;;3.65;71.57
22181;BME280;11256;50.830;12.834;2024-01-10T16:03:09;98789.06;;;3.54;71.12
22181;BME280;11256;50.830;12.834;2024-01-10T16:08:12;98756.97;;;3.02;67.23
22181;BME280;11256;50.830;12.834;2024-01-10T16:13:35;98783.31;;;2.79;63.50
22181;BME280;11256;50.830;12.834;2024-01-10T16:18:41;98800.78;;;2.62;64.62
22181;BME280;11256;50.830;12.834;2024-01-10T16:23:54;98764.25;;;2.22;66.21
22181;BME280;11256;50.830;12.834;2024-01-10T16:28:58;98760.75;;;2.15;67.98
22181;BME280;11256;50.830;12.834;2024-01-10T16:34:17;98777.16;;;2.12;69.46
22181;BME280;11256;50.830;12.834;2024-01-10T16:39:20;98784.56;;;2.10;69.77
22181;BME280;11256;50.830;12.834;2024-01-10T16:44:47;98803.56;;;2.21;70.07
22181;BME280;11256;50.830;12.834;2024-01-10T16:50:36;98833.75;;;2.22;70.29
22181;BME280;11256;50.830;12.834;2024-01-10T16:55:57;98829.41;;;2.14;70.66
22181;BME280;11256;50.830;12.834;2024-01-10T17:01:18;98815.34;;;1.93;70.76
22181;BME280;11256;50.830;12.834;2024-01-10T17:06:36;98795.09;;;1.71;70.70
22181;BME280;11256;50.830;12.834;2024-01-10T17:11:46;98850.22;;;1.85;70.82
22181;BME280;11256;50.830;12.834;2024-01-10T17:16:47;98815.13;;;1.54;70.81
22181;BME280;11256;50.830;12.834;2024-01-10T17:22:01;98848.47;;;1.64;71.16
22181;BME280;11256;50.830;12.834;2024-01-10T17:27:33;98791.06;;;1.20;71.02
22181;BME280;11256;50.830;12.834;2024-01-10T17:32:46;98830.16;;;1.34;70.67
22181;BME280;11256;50.830;12.834;2024-01-10T17:37:47;98844.78;;;1.38;70.59
22181;BME280;11256;50.830;12.834;2024-01-10T17:42:53;98853.94;;;1.29;70.54
22181;BME280;11256;50.830;12.834;2024-01-10T17:47:56;98795.69;;;0.84;70.40
22181;BME280;11256;50.830;12.834;2024-01-10T17:53:11;98852.19;;;1.15;70.69
22181;BME280;11256;50.830;12.834;2024-01-10T17:58:14;98826.84;;;0.83;70.75
22181;BME280;11256;50.830;12.834;2024-01-10T18:03:23;98857.78;;;0.99;70.31
22181;BME280;11256;50.830;12.834;2024-01-10T18:08:37;98823.38;;;0.62;70.84
22181;BME280;11256;50.830;12.834;2024-01-10T18:13:43;98873.00;;;0.63;67.29
22181;BME280;11256;50.830;12.834;2024-01-10T18:18:48;98839.47;;;0.18;62.79
22181;BME280;11256;50.830;12.834;2024-01-10T18:23:50;98877.16;;;0.15;63.69
22181;BME280;11256;50.830;12.834;2024-01-10T18:28:54;98815.63;;;-0.33;64.53
22181;BME280;11256;50.830;12.834;2024-01-10T18:33:57;98869.38;;;-0.15;64.00
22181;BME280;11256;50.830;12.834;2024-01-10T18:38:58;98847.78;;;-0.34;63.21
22181;BME280;11256;50.830;12.834;2024-01-10T18:43:58;98848.88;;;-0.43;63.42
22181;BME280;11256;50.830;12.834;2024-01-10T18:48:59;98827.56;;;-0.58;64.65
22181;BME280;11256;50.830;12.834;2024-01-10T18:53:59;98844.84;;;-0.54;65.56
22181;BME280;11256;50.830;12.834;2024-01-10T18:59:00;98837.84;;;-0.55;68.31
22181;BME280;11256;50.830;12.834;2024-01-10T19:04:00;98852.72;;;-0.46;69.55
22181;BME280;11256;50.830;12.834;2024-01-10T19:09:00;98834.72;;;-0.58;69.97
22181;BME280;11256;50.830;12.834;2024-01-10T19:14:02;98831.59;;;-0.62;69.80
22181;BME280;11256;50.830;12.834;2024-01-10T19:19:05;98845.63;;;-0.53;69.64
22181;BME280;11256;50.830;12.834;2024-01-10T19:24:05;98844.44;;;-0.65;69.02
22181;BME280;11256;50.830;12.834;2024-01-10T19:29:06;98838.00;;;-0.71;70.41
22181;BME280;11256;50.830;12.834;2024-01-10T19:34:06;98846.81;;;-0.70;70.21
22181;BME280;11256;50.830;12.834;2024-01-10T19:39:07;98850.31;;;-0.70;70.33
22181;BME280;11256;50.830;12.834;2024-01-10T19:44:08;98842.56;;;-0.79;70.23
22181;BME280;11256;50.830;12.834;2024-01-10T19:49:08;98862.03;;;-0.79;70.46
22181;BME280;11256;50.830;12.834;2024-01-10T19:54:09;98835.81;;;-1.04;70.65
22181;BME280;11256;50.830;12.834;2024-01-10T19:59:09;98834.91;;;-1.11;70.39
22181;BME280;11256;50.830;12.834;2024-01-10T20:04:10;98857.91;;;-1.04;70.52
22181;BME280;11256;50.830;12.834;2024-01-10T20:09:12;98822.84;;;-1.22;70.58
22181;BME280;11256;50.830;12.834;2024-01-10T20:14:15;98845.41;;;-1.18;70.44
22181;BME280;11256;50.830;12.834;2024-01-10T20:19:15;98836.50;;;-1.25;70.73
22181;BME280;11256;50.830;12.834;2024-01-10T20:24:15;98835.81;;;-1.27;70.66
22181;BME280;11256;50.830;12.834;2024-01-10T20:29:16;98856.63;;;-1.30;70.55
22181;BME280;11256;50.830;12.834;2024-01-10T20:34:17;98837.03;;;-1.52;70.52
22181;BME280;11256;50.830;12.834;2024-01-10T20:39:20;98827.44;;;-1.61;70.41
22181;BME280;11256;50.830;12.834;2024-01-10T20:44:20;98856.25;;;-1.50;70.66
22181;BME280;11256;50.830;12.834;2024-01-10T20:49:21;98864.63;;;-1.61;70.38
22181;BME280;11256;50.830;12.834;2024-01-10T20:54:21;98848.94;;;-1.78;70.68
22181;BME280;11256;50.830;12.834;2024-01-10T20:59:22;98879.97;;;-1.71;70.56
22181;BME280;11256;50.830;12.834;2024-01-10T21:04:22;98885.66;;;-1.82;70.51
22181;BME280;11256;50.830;12.834;2024-01-10T21:09:23;98867.50;;;-2.01;70.46
22181;BME280;11256;50.830;12.834;2024-01-10T21:14:23;98832.75;;;-2.22;70.68
22181;BME280;11256;50.830;12.834;2024-01-10T21:19:23;98844.00;;;-2.20;70.48
22181;BME280;11256;50.830;12.834;2024-01-10T21:24:26;98872.34;;;-2.12;70.51
22181;BME280;11256;50.830;12.834;2024-01-10T21:29:29;98872.03;;;-2.17;70.38
22181;BME280;11256;50.830;12.834;2024-01-10T21:34:29;98864.91;;;-2.25;70.36
22181;BME280;11256;50.830;12.834;2024-01-10T21:39:30;98879.19;;;-2.26;70.58
22181;BME280;11256;50.830;12.834;2024-01-10T21:44:31;98878.22;;;-2.33;70.35
22181;BME280;11256;50.830;12.834;2024-01-10T21:49:31;98881.41;;;-2.45;70.12
22181;BME280;11256;50.830;12.834;2024-01-10T21:54:31;98890.19;;;-2.45;70.42
22181;BME280;11256;50.830;12.834;2024-01-10T21:59:33;98904.78;;;-2.49;70.41
22181;BME280;11256;50.830;12.834;2024-01-10T22:04:33;98889.72;;;-2.64;70.26
22181;BME280;11256;50.830;12.834;2024-01-10T22:09:33;98885.91;;;-2.70;70.20
22181;BME280;11256;50.830;12.834;2024-01-10T22:14:34;98905.00;;;-2.74;70.18
22181;BME280;11256;50.830;12.834;2024-01-10T22:19:34;98910.13;;;-2.81;70.14
22181;BME280;11256;50.830;12.834;2024-01-10T22:24:34;98918.25;;;-2.82;69.98
22181;BME280;11256;50.830;12.834;2024-01-10T22:29:35;98927.00;;;-2.90;70.11
22181;BME280;11256;50.830;12.834;2024-01-10T22:34:35;98881.94;;;-3.22;69.83
22181;BME280;11256;50.830;12.834;2024-01-10T22:39:35;98915.44;;;-3.05;70.55
22181;BME280;11256;50.830;12.834;2024-01-10T22:44:36;98904.50;;;-3.10;70.04
22181;BME280;11256;50.830;12.834;2024-01-10T22:49:36;98915.22;;;-3.19;69.79
22181;BME280;11256;50.830;12.834;2024-01-10T22:54:37;98920.38;;;-3.18;70.18
22181;BME280;11256;50.830;12.834;2024-01-10T22:59:37;98922.69;;;-3.31;70.13
22181;BME280;11256;50.830;12.834;2024-01-10T23:04:39;98912.06;;;-3.39;69.78
22181;BME280;11256;50.830;12.834;2024-01-10T23:09:39;98883.19;;;-3.74;70.30
22181;BME280;11256;50.830;12.834;2024-01-10T23:14:39;98931.41;;;-3.46;69.90
22181;BME280;11256;50.830;12.834;2024-01-10T23:19:40;98915.66;;;-3.64;69.97
22181;BME280;11256;50.830;12.834;2024-01-10T23:24:40;98911.31;;;-3.65;70.18
22181;BME280;11256;50.830;12.834;2024-01-10T23:29:40;98888.28;;;-3.80;69.81
22181;BME280;11256;50.830;12.834;2024-01-10T23:34:43;98914.31;;;-3.68;69.76
22181;BME280;11256;50.830;12.834;2024-01-10T23:39:44;98883.78;;;-3.88;69.68
22181;BME280;11256;50.830;12.834;2024-01-10T23:44:44;98893.06;;;-3.84;70.05
22181;BME280;11256;50.830;12.834;2024-01-10T23:49:44;98879.63;;;-3.98;69.74
22181;BME280;11256;50.830;12.834;2024-01-10T23:54:45;98893.38;;;-3.95;69.98
22181;BME280;11256;50.830;12.834;2024-01-10T23:59:45;98890.00;;;-4.05;69.90
